Terminal Aerodrome Forecast
Issued by NWS

Home | Current Version | Previous Version | Text Only | Print | Product List | Glossary On
Versions: 1 2 3 4 5 6 7 8 9 10 11 12 13 14 15 16 17 18 19 20 21 22 23 24 25 26 27 28 29 30 31 32 33 34 35
000
FTUS41 KOKX 231733
TAFTEB
TAF
KTEB 231733Z 2318/2424 10004KT 5SM BR VCSH FEW008 OVC011
      TEMPO 2318/2320 4SM -RA BR BKN008 OVC011
     FM232000 VRB03KT 3SM -RA BR OVC005
     FM240100 VRB03KT 2SM -RA BR OVC005 WS020/27035KT
     FM240600 VRB02KT 5SM BR OVC011
     FM241300 33005KT P6SM FEW012 OVC090
     FM241800 35005KT P6SM OVC090=

USA.gov is the U.S. government's official web portal to all federal, state and local government web resources and services.